M/V C0sta Favolosa — ICPK — position and weather

sailwx.info

Track history (hours):
 
Tides and Currents Weather Stations Pressure Air Temp Water Temp Dewpoint Dewpoint Depression Visibility Wind Speed Wind Dir Waves Ship Positions

M/V C0sta Favolosa

Last reported at 2019-Jan-19 23:23 UTC. Time now 2019-Jan-23 18:42 UTC.
Position S 24°42' W 046°35'.

Length 289 m; draft 8.3 m.

Type: Passenger vessel. MMSI: 247311100.

Date/timePositionNaut miles runAvg speedWind from/ knotsBaromVisibWave heightAir tempDewpointWater temp
2019-Jan-19 23:23S 24°42' W 046°35'717.7
2019-Jan-19 23:00S 24°36' W 046°32'917.7
2019-Jan-19 22:31S 24°28' W 046°29'917.7
2019-Jan-19 22:00S 24°19' W 046°26'918.0
2019-Jan-19 21:30S 24°11' W 046°24'817.2
2019-Jan-19 21:01S 24°03' W 046°21'6 0.5
2019-Jan-19 09:11S 23°58' W 046°18'1 3.5
2019-Jan-19 08:59S 23°58' W 046°18'4 7.3
2019-Jan-19 08:30S 24°01' W 046°20'612.1
2019-Jan-19 08:00S 24°06' W 046°22'612.1
2019-Jan-19 07:30S 24°12' W 046°22'612.0
2019-Jan-19 07:00S 24°18' W 046°22'611.3
2019-Jan-19 06:30S 24°23' W 046°18'917.5
2019-Jan-19 06:00S 24°30' W 046°12'134 7.8
2019-Jan-18 12:54S 23°31' W 044°01'1118.3
2019-Jan-18 12:18S 23°28' W 043°49'819.5
2019-Jan-18 11:52S 23°26' W 043°40'1219.2
2019-Jan-18 11:14S 23°23' W 043°27'818.8
2019-Jan-18 10:50S 23°21' W 043°19'  
2019-Jan-13 21:22S 24°04' W 046°09'819.7
2019-Jan-13 20:59S 24°04' W 046°17'5 9.6
2019-Jan-13 20:30S 23°60' W 046°19'1 0.1
2019-Jan-13 08:34S 23°59' W 046°18'2 8.6
2019-Jan-13 08:20S 23°60' W 046°20'2 6.8
2019-Jan-13 08:00S 24°02' W 046°21'612.3
2019-Jan-13 07:30S 24°08' W 046°23'918.7
2019-Jan-13 07:00S 24°17' W 046°26'918.9
2019-Jan-13 06:30S 24°26' W 046°29'  
Track history (hours):
 
Tides and Currents Weather Stations Pressure Air Temp Water Temp Dewpoint Dewpoint Depression Visibility Wind Speed Wind Dir Waves Ship Positions

M/V C0sta Favolosa

Last reported at 2019-Jan-19 23:23 UTC. Time now 2019-Jan-23 18:42 UTC.
Position S 24°42' W 046°35'.

Length 289 m; draft 8.3 m.

Type: Passenger vessel. MMSI: 247311100.

Date/timePositionNaut miles runAvg speedWind from/ knotsBaromVisibWave heightAir tempDewpointWater temp
2019-Jan-19 23:23S 24°42' W 046°35'717.7
2019-Jan-19 23:00S 24°36' W 046°32'917.7
2019-Jan-19 22:31S 24°28' W 046°29'917.7
2019-Jan-19 22:00S 24°19' W 046°26'918.0
2019-Jan-19 21:30S 24°11' W 046°24'817.2
2019-Jan-19 21:01S 24°03' W 046°21'6 0.5
2019-Jan-19 09:11S 23°58' W 046°18'1 3.5
2019-Jan-19 08:59S 23°58' W 046°18'4 7.3
2019-Jan-19 08:30S 24°01' W 046°20'612.1
2019-Jan-19 08:00S 24°06' W 046°22'612.1
2019-Jan-19 07:30S 24°12' W 046°22'612.0
2019-Jan-19 07:00S 24°18' W 046°22'611.3
2019-Jan-19 06:30S 24°23' W 046°18'917.5
2019-Jan-19 06:00S 24°30' W 046°12'134 7.8
2019-Jan-18 12:54S 23°31' W 044°01'1118.3
2019-Jan-18 12:18S 23°28' W 043°49'819.5
2019-Jan-18 11:52S 23°26' W 043°40'1219.2
2019-Jan-18 11:14S 23°23' W 043°27'818.8
2019-Jan-18 10:50S 23°21' W 043°19'  
2019-Jan-13 21:22S 24°04' W 046°09'819.7
2019-Jan-13 20:59S 24°04' W 046°17'5 9.6
2019-Jan-13 20:30S 23°60' W 046°19'1 0.1
2019-Jan-13 08:34S 23°59' W 046°18'2 8.6
2019-Jan-13 08:20S 23°60' W 046°20'2 6.8
2019-Jan-13 08:00S 24°02' W 046°21'612.3
2019-Jan-13 07:30S 24°08' W 046°23'918.7
2019-Jan-13 07:00S 24°17' W 046°26'918.9
2019-Jan-13 06:30S 24°26' W 046°29'  

Dump ship's entire track history